Time;durP1;ratioP1;P1;durP2;ratioP2;P2;SDS_P1;SDS_P2;PMS_P1;PMS_P2;Temp;Humidity;BMP_temperature;BMP_pressure;BME280_temperature;BME280_humidity;BME280_pressure;Samples;Min_cycle;Max_cycle;Signal;HPM_P1;HPM_P2
2020/12/02 00:00:34;;;;;;;38.05;19.85;;;;;;;-5.05;79.80;97729.73;1738905;80;21703;-77
2020/12/02 00:03:35;;;;;;;38.13;18.73;;;;;;;-5.10;79.89;97732.78;1761142;81;21142;-79
2020/12/02 00:06:05;;;;;;;31.77;15.07;;;;;;;-5.05;79.88;97734.88;1758969;81;21127;-79
2020/12/02 00:08:40;;;;;;;40.17;19.33;;;;;;;-5.02;79.70;97735.31;1738091;81;21168;-78
2020/12/02 00:11:12;;;;;;;32.93;17.23;;;;;;;-5.12;80.12;97735.80;1692869;84;21335;-79
2020/12/02 00:13:45;;;;;;;41.43;21.53;;;;;;;-5.14;80.19;97734.11;1704276;84;21169;-78
2020/12/02 00:16:18;;;;;;;37.47;18.50;;;;;;;-5.17;80.23;97733.70;1724795;82;21756;-80
2020/12/02 00:18:46;;;;;;;30.60;14.97;;;;;;;-5.16;80.23;97737.98;1720666;83;21151;-79
2020/12/02 00:21:13;;;;;;;31.37;14.90;;;;;;;-5.18;79.97;97739.26;1684878;85;21151;-80
2020/12/02 00:23:41;;;;;;;40.73;19.87;;;;;;;-5.21;80.35;97740.59;1731202;83;21719;-79
2020/12/02 00:26:08;;;;;;;42.53;19.67;;;;;;;-5.23;80.96;97735.88;1731463;82;21274;-78
2020/12/02 00:28:37;;;;;;;38.37;19.67;;;;;;;-5.22;81.13;97736.72;1747319;82;21526;-78
2020/12/02 00:31:04;;;;;;;37.53;19.73;;;;;;;-5.26;81.17;97724.33;1730772;81;21282;-79
2020/12/02 00:33:31;;;;;;;37.97;18.87;;;;;;;-5.26;81.01;97735.05;1716954;82;21135;-78
2020/12/02 00:36:01;;;;;;;32.20;15.50;;;;;;;-5.23;80.93;97732.44;1711502;84;21266;-80
2020/12/02 00:38:50;;;;;;;41.10;19.83;;;;;;;-5.24;81.17;97726.88;1744468;82;21297;-80
2020/12/02 00:41:18;;;;;;;35.13;15.10;;;;;;;-5.26;80.77;97728.18;1715236;82;21285;-79
2020/12/02 00:43:46;;;;;;;37.87;18.33;;;;;;;-5.18;80.32;97724.28;1714311;83;21457;-80
2020/12/02 00:46:16;;;;;;;36.97;18.03;;;;;;;-5.19;80.52;97730.28;1714283;84;21274;-80
2020/12/02 00:48:51;;;;;;;36.23;18.40;;;;;;;-5.10;80.21;97728.93;1735564;80;21139;-80
2020/12/02 00:51:21;;;;;;;31.77;16.77;;;;;;;-5.07;80.15;97730.20;1713954;82;21285;-78
2020/12/02 00:53:51;;;;;;;37.17;17.90;;;;;;;-4.97;80.28;97730.13;1742566;82;21155;-80
2020/12/02 00:56:21;;;;;;;32.33;17.87;;;;;;;-4.90;79.79;97731.78;1742824;82;21250;-80
2020/12/02 00:59:22;;;;;;;36.63;18.17;;;;;;;-4.87;79.66;97729.16;1720910;82;21720;-80
2020/12/02 01:02:28;;;;;;;37.67;18.17;;;;;;;-4.84;79.42;97726.58;1721723;83;21315;-80
2020/12/02 01:04:59;;;;;;;34.50;17.33;;;;;;;-4.84;78.98;97730.88;1738467;83;21268;-79
2020/12/02 01:07:28;;;;;;;26.20;12.63;;;;;;;-4.86;79.02;97730.45;1745911;82;21152;-78
2020/12/02 01:09:56;;;;;;;36.67;18.67;;;;;;;-4.89;78.61;97730.91;1757140;81;21262;-78
2020/12/02 01:12:24;;;;;;;34.60;19.07;;;;;;;-4.92;78.99;97733.50;1727624;82;21171;-79
2020/12/02 01:14:53;;;;;;;34.37;17.67;;;;;;;-4.88;78.91;97727.48;1757234;82;21287;-79
2020/12/02 01:17:20;;;;;;;31.40;15.13;;;;;;;-4.85;78.85;97722.30;1796215;79;21274;-79
2020/12/02 01:19:48;;;;;;;23.07;11.70;;;;;;;-4.86;78.93;97718.02;1760450;80;21260;-80
2020/12/02 01:22:26;;;;;;;29.20;15.30;;;;;;;-4.76;79.26;97723.95;1789818;80;21314;-79
2020/12/02 01:25:22;;;;;;;22.67;11.17;;;;;;;-4.67;79.27;97722.98;1789609;80;21196;-79
2020/12/02 01:28:07;;;;;;;24.30;10.73;;;;;;;-4.65;78.76;97725.13;1792606;79;21691;-80
2020/12/02 01:30:38;;;;;;;37.13;19.30;;;;;;;-4.68;78.71;97725.14;1824448;79;21691;-79
2020/12/02 01:33:06;;;;;;;36.07;19.80;;;;;;;-4.65;78.95;97722.13;1767724;78;21254;-79
2020/12/02 01:35:33;;;;;;;40.47;19.23;;;;;;;-4.62;78.78;97724.66;1779592;80;21105;-81
2020/12/02 01:38:07;;;;;;;35.43;15.70;;;;;;;-4.59;78.53;97723.77;1782113;79;21136;-79
2020/12/02 01:40:36;;;;;;;37.77;18.97;;;;;;;-4.58;78.68;97721.61;1779308;81;21152;-80
2020/12/02 01:43:08;;;;;;;43.13;19.80;;;;;;;-4.64;78.36;97715.25;1785479;79;21135;-80
2020/12/02 01:45:43;;;;;;;39.23;18.70;;;;;;;-4.61;78.39;97722.95;1781740;79;21128;-77
2020/12/02 01:49:01;;;;;;;37.93;19.83;;;;;;;-4.56;78.42;97722.05;1779458;80;21286;-79
2020/12/02 01:51:46;;;;;;;37.70;17.70;;;;;;;-4.62;78.24;97716.94;1810795;79;21241;-80
2020/12/02 01:54:31;;;;;;;39.83;19.53;;;;;;;-4.60;78.28;97714.37;1784918;80;21285;-79
2020/12/02 01:57:22;;;;;;;34.27;17.87;;;;;;;-4.64;78.37;97709.66;1785025;80;21545;-79
2020/12/02 02:00:15;;;;;;;38.83;19.70;;;;;;;-4.56;78.35;97709.59;1788791;79;21285;-80
2020/12/02 02:03:14;;;;;;;44.90;20.67;;;;;;;-4.73;77.92;97711.91;1811923;79;21182;-80
2020/12/02 02:06:02;;;;;;;35.53;18.23;;;;;;;-4.79;78.10;97711.97;1825015;79;21139;-79
2020/12/02 02:08:34;;;;;;;38.10;18.23;;;;;;;-4.84;78.25;97712.42;1822739;79;21262;-79
2020/12/02 02:11:05;;;;;;;35.63;18.73;;;;;;;-4.87;78.11;97710.74;1821339;79;21719;-78
2020/12/02 02:14:05;;;;;;;39.33;19.30;;;;;;;-4.94;77.98;97706.94;1822562;78;21144;-80
2020/12/02 02:16:43;;;;;;;37.70;17.53;;;;;;;-4.90;78.28;97704.77;1789485;78;21278;-80
2020/12/02 02:19:22;;;;;;;36.77;18.50;;;;;;;-4.84;78.29;97702.59;1787575;80;21264;-80
2020/12/02 02:21:55;;;;;;;41.40;19.40;;;;;;;-4.98;77.90;97703.99;1823656;79;21230;-80
2020/12/02 02:24:24;;;;;;;38.10;18.77;;;;;;;-4.97;78.18;97700.56;1824995;78;21108;-77
2020/12/02 02:26:55;;;;;;;36.40;18.23;;;;;;;-5.01;77.88;97699.70;1824676;78;21069;-78
2020/12/02 02:29:38;;;;;;;37.53;18.90;;;;;;;-5.02;77.80;97704.00;1821759;79;21131;-79
2020/12/02 02:32:11;;;;;;;33.37;17.93;;;;;;;-5.02;78.07;97705.73;1773309;80;21254;-80
2020/12/02 02:34:49;;;;;;;33.90;16.73;;;;;;;-5.06;77.81;97704.05;1775918;80;21191;-79
2020/12/02 02:37:19;;;;;;;32.97;18.10;;;;;;;-5.03;78.10;97704.03;1780555;79;21258;-79
2020/12/02 02:39:53;;;;;;;29.90;14.37;;;;;;;-4.96;78.18;97706.09;1781794;79;21128;-79
2020/12/02 02:42:39;;;;;;;15.83;7.00;;;;;;;-4.96;77.78;97704.81;1803929;79;21286;-79
2020/12/02 02:45:12;;;;;;;35.87;17.90;;;;;;;-5.01;77.72;97697.13;1796617;78;21249;-80
2020/12/02 02:47:40;;;;;;;25.67;11.07;;;;;;;-5.19;77.80;97706.70;1785305;79;21277;-80
2020/12/02 02:50:15;;;;;;;37.90;19.67;;;;;;;-5.29;77.75;97701.65;1784637;80;21127;-78
2020/12/02 02:52:45;;;;;;;19.07;7.33;;;;;;;-5.47;78.88;97708.63;1785761;79;21241;-79
2020/12/02 02:55:18;;;;;;;39.60;17.67;;;;;;;-5.40;78.49;97707.72;1784813;80;21265;-79
2020/12/02 02:57:47;;;;;;;33.70;17.50;;;;;;;-5.39;78.44;97702.16;1786390;80;21263;-78
2020/12/02 03:00:19;;;;;;;36.37;18.30;;;;;;;-5.34;78.50;97703.84;1789842;80;21129;-79
2020/12/02 03:02:47;;;;;;;35.83;16.97;;;;;;;-5.28;78.36;97704.20;1794477;79;21185;-80
2020/12/02 03:05:16;;;;;;;35.03;17.90;;;;;;;-5.20;78.62;97706.72;1789681;80;21135;-78
2020/12/02 03:07:44;;;;;;;38.37;18.80;;;;;;;-5.09;78.04;97707.50;1789750;80;21250;-80
2020/12/02 03:10:20;;;;;;;36.97;18.17;;;;;;;-5.11;77.70;97706.65;1789853;80;21268;-77
2020/12/02 03:12:48;;;;;;;37.63;18.70;;;;;;;-5.12;77.79;97707.52;1790330;80;21265;-79
2020/12/02 03:15:20;;;;;;;35.80;17.63;;;;;;;-5.17;77.78;97707.55;1789877;80;21134;-79
2020/12/02 03:17:53;;;;;;;36.13;17.67;;;;;;;-5.18;78.04;97710.98;1789911;80;21256;-78
2020/12/02 03:20:32;;;;;;;38.00;18.30;;;;;;;-5.22;78.34;97705.88;1793413;79;21274;-80
2020/12/02 03:23:00;;;;;;;38.27;18.03;;;;;;;-5.23;78.42;97706.73;1771389;79;21132;-80
2020/12/02 03:25:32;;;;;;;36.80;17.77;;;;;;;-5.27;77.50;97709.77;1757433;81;21259;-79
2020/12/02 03:28:00;;;;;;;39.00;19.33;;;;;;;-5.31;77.65;97708.51;1757084;81;21317;-79
2020/12/02 03:30:34;;;;;;;38.60;18.60;;;;;;;-5.35;78.23;97707.68;1774233;79;21253;-80
2020/12/02 03:33:34;;;;;;;36.42;19.40;;;;;;;-5.45;78.26;97707.32;1801883;79;24724;-80
2020/12/02 03:36:01;;;;;;;34.30;17.67;;;;;;;-5.47;78.59;97703.93;1763766;81;21290;-79
2020/12/02 03:38:29;;;;;;;40.23;19.13;;;;;;;-5.49;78.68;97704.79;1763759;81;21159;-80
2020/12/02 03:40:56;;;;;;;42.37;19.83;;;;;;;-5.47;78.46;97707.78;1742808;82;21284;-78
2020/12/02 03:43:24;;;;;;;37.13;18.30;;;;;;;-5.41;78.42;97707.28;1740394;81;21142;-79
2020/12/02 03:45:51;;;;;;;37.37;18.13;;;;;;;-5.36;78.29;97707.26;1780008;81;21759;-78
2020/12/02 03:48:21;;;;;;;37.60;19.60;;;;;;;-5.37;78.42;97710.69;1761839;81;21139;-80
2020/12/02 03:50:49;;;;;;;35.23;16.83;;;;;;;-5.42;78.39;97709.43;1763453;81;21141;-80
2020/12/02 03:53:19;;;;;;;35.87;17.40;;;;;;;-5.54;78.40;97712.10;1782080;80;21262;-78
2020/12/02 03:55:47;;;;;;;40.77;19.17;;;;;;;-5.53;78.33;97712.08;1788812;80;21141;-78
2020/12/02 03:58:16;;;;;;;37.70;18.83;;;;;;;-5.61;78.89;97718.98;1777614;81;21253;-79
2020/12/02 04:00:44;;;;;;;35.20;18.90;;;;;;;-5.68;79.82;97716.88;1778798;80;21274;-79
2020/12/02 04:03:12;;;;;;;43.10;20.97;;;;;;;-5.67;79.41;97721.16;1779067;81;21147;-79
2020/12/02 04:05:48;;;;;;;37.47;19.47;;;;;;;-5.62;79.39;97715.99;1778684;81;21151;-80
2020/12/02 04:08:16;;;;;;;35.53;16.93;;;;;;;-5.68;79.69;97714.30;1778640;81;21258;-79
2020/12/02 04:10:44;;;;;;;25.17;11.87;;;;;;;-5.59;79.21;97713.83;1765409;81;21509;-79
2020/12/02 04:13:12;;;;;;;39.37;18.67;;;;;;;-5.61;79.09;97718.98;1748406;82;21157;-79
2020/12/02 04:15:40;;;;;;;34.73;16.20;;;;;;;-5.67;79.09;97719.03;1747668;81;21199;-77
2020/12/02 04:18:10;;;;;;;42.60;20.80;;;;;;;-5.69;78.80;97713.04;1748148;82;21275;-78
2020/12/02 04:20:40;;;;;;;39.10;19.03;;;;;;;-5.69;79.37;97710.02;1764502;81;21143;-78
2020/12/02 04:23:08;;;;;;;40.73;20.40;;;;;;;-5.63;78.84;97707.86;1756653;81;21266;-79
2020/12/02 04:25:35;;;;;;;36.23;18.27;;;;;;;-5.65;78.95;97714.30;1748254;81;21105;-77
2020/12/02 04:28:02;;;;;;;37.33;16.97;;;;;;;-5.63;78.60;97714.73;1747781;81;21275;-78
2020/12/02 04:30:32;;;;;;;41.30;20.60;;;;;;;-5.62;78.60;97716.44;1747712;81;21139;-78
2020/12/02 04:33:00;;;;;;;42.07;20.07;;;;;;;-5.74;79.42;97707.92;1751062;81;21116;-76
2020/12/02 04:35:27;;;;;;;41.07;19.63;;;;;;;-5.66;79.64;97719.45;1793396;80;21239;-78
2020/12/02 04:37:55;;;;;;;46.33;20.47;;;;;;;-5.60;79.67;97721.98;1795562;80;21147;-77
2020/12/02 04:40:33;;;;;;;38.90;18.63;;;;;;;-5.50;79.25;97726.62;1797270;79;21127;-78
2020/12/02 04:43:14;;;;;;;38.17;19.27;;;;;;;-5.57;78.97;97722.39;1790906;79;21254;-78
2020/12/02 04:45:42;;;;;;;38.17;19.40;;;;;;;-5.59;79.33;97729.23;1794016;79;21253;-79
2020/12/02 04:48:18;;;;;;;39.37;19.70;;;;;;;-5.55;79.19;97721.51;1789085;80;21135;-79
2020/12/02 04:50:46;;;;;;;37.85;18.48;;;;;;;-5.53;79.24;97727.50;1752444;82;21122;-77
2020/12/02 04:53:24;;;;;;;33.70;18.73;;;;;;;-5.42;79.21;97726.13;1760838;80;21298;-78
2020/12/02 04:55:56;;;;;;;39.00;19.53;;;;;;;-5.56;79.10;97727.50;1759222;82;21262;-78
2020/12/02 04:58:36;;;;;;;46.03;21.87;;;;;;;-5.61;78.76;97733.56;1727257;82;21209;-78
2020/12/02 05:01:25;;;;;;;39.23;19.40;;;;;;;-5.73;79.34;97725.05;1721109;83;21162;-78
2020/12/02 05:04:27;;;;;;;38.30;18.80;;;;;;;-5.65;79.61;97722.42;1729143;83;21163;-80
2020/12/02 05:07:14;;;;;;;27.40;13.10;;;;;;;-5.56;79.58;97724.94;1727717;83;21266;-78
2020/12/02 05:09:59;;;;;;;26.13;13.47;;;;;;;-5.49;79.20;97729.61;1790336;79;21258;-76
2020/12/02 05:12:40;;;;;;;38.70;14.77;;;;;;;-5.56;79.21;97727.95;1788922;80;21140;-78
2020/12/02 05:15:24;;;;;;;43.20;20.13;;;;;;;-5.62;78.66;97735.26;1787491;79;21312;-78
2020/12/02 05:18:21;;;;;;;40.97;18.30;;;;;;;-5.70;78.98;97733.16;1796513;79;21128;-78
2020/12/02 05:21:20;;;;;;;35.43;18.67;;;;;;;-5.66;79.05;97732.30;1821192;79;21267;-78
2020/12/02 05:24:11;;;;;;;38.83;18.00;;;;;;;-5.74;79.30;97724.63;1793719;79;21266;-80
2020/12/02 05:26:44;;;;;;;27.63;12.23;;;;;;;-5.70;79.43;97730.59;1789099;80;21569;-79
2020/12/02 05:29:54;;;;;;;23.57;10.80;;;;;;;-5.71;78.93;97728.88;1789525;80;21267;-79
2020/12/02 05:32:28;;;;;;;39.63;20.37;;;;;;;-5.85;78.90;97731.11;1794115;79;21282;-78
2020/12/02 05:34:56;;;;;;;40.07;18.93;;;;;;;-6.04;79.24;97727.77;1798711;80;21137;-78
2020/12/02 05:37:39;;;;;;;45.57;21.27;;;;;;;-6.09;81.02;97732.50;1798178;80;21164;-79
2020/12/02 05:40:12;;;;;;;44.97;22.43;;;;;;;-6.06;81.08;97736.35;1758080;82;21137;-78
2020/12/02 05:42:49;;;;;;;32.87;13.70;;;;;;;-5.99;80.84;97740.16;1704101;83;21190;-81
2020/12/02 05:45:40;;;;;;;40.20;18.27;;;;;;;-5.86;80.07;97732.38;1713444;83;21168;-79
2020/12/02 05:48:12;;;;;;;43.43;20.43;;;;;;;-5.87;80.13;97731.53;1752550;82;21590;-78
2020/12/02 05:50:40;;;;;;;47.17;20.43;;;;;;;-5.80;80.06;97731.09;1771791;80;21578;-79
2020/12/02 05:53:41;;;;;;;23.83;9.07;;;;;;;-5.84;79.99;97734.52;1755818;81;21617;-80
2020/12/02 05:56:10;;;;;;;32.93;17.40;;;;;;;-5.81;79.62;97738.36;1764886;81;21179;-79
2020/12/02 05:58:41;;;;;;;40.30;17.60;;;;;;;-5.86;79.42;97738.80;1766501;81;21159;-79
2020/12/02 06:01:18;;;;;;;34.47;13.70;;;;;;;-5.88;80.40;97747.80;1742518;81;21144;-79
2020/12/02 06:03:53;;;;;;;18.87;8.83;;;;;;;-5.87;79.78;97747.36;1734159;83;21215;-80
2020/12/02 06:06:21;;;;;;;41.00;18.03;;;;;;;-5.99;79.29;97743.16;1735402;83;21173;-80
2020/12/02 06:08:51;;;;;;;39.17;19.17;;;;;;;-6.15;79.77;97747.08;1734968;81;21141;-78
2020/12/02 06:11:31;;;;;;;32.70;14.37;;;;;;;-6.15;79.68;97745.80;1739203;81;21143;-79
2020/12/02 06:14:32;;;;;;;41.50;19.13;;;;;;;-6.08;79.90;97753.05;1760179;81;21162;-80
2020/12/02 06:17:03;;;;;;;39.33;19.17;;;;;;;-6.07;79.79;97747.03;1747816;82;21567;-79
2020/12/02 06:19:45;;;;;;;39.80;19.03;;;;;;;-5.98;79.50;97750.81;1741401;81;21654;-78
2020/12/02 06:22:12;;;;;;;43.07;19.60;;;;;;;-6.02;79.56;97746.60;1726516;83;21609;-80
2020/12/02 06:24:51;;;;;;;40.80;20.33;;;;;;;-5.85;80.27;97743.08;1758223;81;21116;-80
2020/12/02 06:27:33;;;;;;;46.60;21.37;;;;;;;-5.70;79.82;97740.87;1731792;82;22262;-78
2020/12/02 06:30:09;;;;;;;44.10;23.10;;;;;;;-5.58;78.91;97743.38;1733052;82;21632;-77
2020/12/02 06:32:37;;;;;;;;;;;;;;;-5.45;78.70;97745.45;1727231;81;21585;-77
2020/12/02 06:35:20;;;;;;;25.47;11.13;;;;;;;-5.31;79.02;97747.06;1728638;81;20508;-77
2020/12/02 06:38:25;;;;;;;34.13;17.07;;;;;;;-5.22;78.01;97751.73;1766549;79;24346;-76
2020/12/02 06:41:04;;;;;;;25.13;11.50;;;;;;;-5.29;78.24;97744.93;1744633;82;21176;-78
2020/12/02 06:43:37;;;;;;;18.60;7.60;;;;;;;-5.34;78.05;97748.81;1737287;82;21191;-77
2020/12/02 06:46:09;;;;;;;45.03;20.33;;;;;;;-5.48;77.91;97750.59;1739381;82;21684;-78
2020/12/02 06:48:39;;;;;;;35.70;17.97;;;;;;;-5.60;78.20;97746.80;1714814;82;21262;-77
2020/12/02 06:51:14;;;;;;;36.27;18.17;;;;;;;-5.59;78.76;97743.38;1735897;82;21212;-78
2020/12/02 06:53:43;;;;;;;;;;;;;;;-5.54;78.58;97742.93;1675268;85;21174;-77
2020/12/02 06:56:15;;;;;;;22.47;8.97;;;;;;;-5.46;78.05;97738.60;1694937;84;20171;-77
2020/12/02 06:58:43;;;;;;;29.27;13.23;;;;;;;-5.46;78.31;97748.88;1682080;85;21178;-79
2020/12/02 07:01:16;;;;;;;25.43;13.27;;;;;;;-5.53;77.85;97743.36;1703940;84;21203;-76
2020/12/02 07:03:45;;;;;;;42.20;19.97;;;;;;;-5.69;77.49;97744.70;1677269;84;21203;-76
2020/12/02 07:06:20;;;;;;;28.47;15.40;;;;;;;-5.87;78.56;97749.92;1698243;84;21148;-78
2020/12/02 07:09:10;;;;;;;24.10;11.10;;;;;;;-5.74;78.91;97746.45;1697261;84;21155;-76
2020/12/02 07:11:44;;;;;;;41.03;19.43;;;;;;;-5.74;78.52;97750.31;1700056;84;21719;-77
2020/12/02 07:14:17;;;;;;;35.93;17.40;;;;;;;-5.88;79.07;97750.78;1674795;84;21213;-80
2020/12/02 07:16:45;;;;;;;32.47;15.17;;;;;;;-5.80;78.89;97753.75;1657947;85;21152;-82
2020/12/02 07:19:16;;;;;;;21.43;9.60;;;;;;;-5.77;78.93;97755.45;1662771;85;21155;-76
2020/12/02 07:21:57;;;;;;;20.13;10.43;;;;;;;-5.67;78.75;97756.27;1675967;85;21637;-79
2020/12/02 07:24:36;;;;;;;38.20;17.60;;;;;;;-5.68;78.52;97764.39;1666929;85;21232;-76
2020/12/02 07:27:05;;;;;;;21.27;9.80;;;;;;;-5.75;78.85;97763.16;1665709;85;21296;-77
2020/12/02 07:29:34;;;;;;;44.60;21.83;;;;;;;-5.70;78.67;97760.97;1669620;85;21195;-77
2020/12/02 07:32:22;;;;;;;44.87;19.63;;;;;;;-5.68;79.22;97763.11;1668309;85;21157;-77
2020/12/02 07:35:01;;;;;;;23.33;9.90;;;;;;;-5.52;79.08;97762.61;1668820;85;21195;-76
2020/12/02 07:37:28;;;;;;;47.17;22.20;;;;;;;-5.36;78.75;97764.67;1663598;85;21620;-77
2020/12/02 07:40:01;;;;;;;19.63;10.03;;;;;;;-5.28;78.95;97767.17;1641914;86;21164;-76
2020/12/02 07:42:42;;;;;;;46.17;21.43;;;;;;;-5.05;78.56;97762.32;1674306;85;21190;-78
2020/12/02 07:45:19;;;;;;;35.73;17.70;;;;;;;-5.15;77.69;97766.66;1674595;85;21146;-77
2020/12/02 07:48:13;;;;;;;53.13;22.00;;;;;;;-5.24;77.26;97762.86;1654409;85;21142;-79
2020/12/02 07:50:52;;;;;;;32.90;13.20;;;;;;;-5.23;77.81;97760.30;1627960;88;21186;-79
2020/12/02 07:53:32;;;;;;;46.92;21.97;;;;;;;-5.13;77.82;97757.67;1634433;86;21159;-80
2020/12/02 07:56:01;;;;;;;44.00;21.43;;;;;;;-5.17;77.74;97752.54;1649996;87;21184;-79
2020/12/02 07:58:40;;;;;;;43.90;21.53;;;;;;;-5.04;77.07;97748.16;1658919;86;21589;-79
2020/12/02 08:01:34;;;;;;;42.07;20.97;;;;;;;-4.98;77.06;97747.70;1649935;87;21152;-78
2020/12/02 08:04:25;;;;;;;44.70;21.77;;;;;;;-4.84;76.68;97745.86;1609753;88;21180;-79
2020/12/02 08:07:12;;;;;;;50.87;23.17;;;;;;;-4.82;76.84;97747.13;1634579;88;21229;-80
2020/12/02 08:09:46;;;;;;;44.35;22.30;;;;;;;-4.60;77.57;97751.68;1635638;88;21314;-82
2020/12/02 08:12:22;;;;;;;42.60;22.63;;;;;;;-4.41;76.06;97757.49;1635073;88;21358;-80
2020/12/02 08:15:07;;;;;;;39.92;22.27;;;;;;;-4.52;75.07;97751.17;1634844;88;21189;-81
2020/12/02 08:17:35;;;;;;;39.27;17.13;;;;;;;-4.33;75.77;97754.85;1660721;85;21174;-81
2020/12/02 08:20:31;;;;;;;47.13;22.73;;;;;;;-4.31;74.31;97751.39;1660681;86;21305;-82
2020/12/02 08:23:12;;;;;;;31.27;15.33;;;;;;;-4.31;74.62;97745.37;1617616;88;21330;-80
2020/12/02 08:26:13;;;;;;;30.72;13.62;;;;;;;-4.10;74.99;97755.45;1931552;74;24757;-81
2020/12/02 08:28:42;;;;;;;48.40;23.40;;;;;;;-4.45;74.75;97759.25;1901630;75;21231;-81
2020/12/02 08:31:27;;;;;;;44.63;22.20;;;;;;;-4.59;74.90;97760.66;1901999;75;21077;-81
2020/12/02 08:34:23;;;;;;;45.33;23.20;;;;;;;-4.51;75.37;97762.30;1900000;75;21251;-78
2020/12/02 08:37:15;;;;;;;48.70;23.87;;;;;;;-4.44;75.04;97762.66;1901243;75;21263;-82
2020/12/02 08:39:47;;;;;;;52.27;25.93;;;;;;;-4.57;74.76;97758.94;1900844;75;21232;-82
2020/12/02 08:42:31;;;;;;;43.43;22.80;;;;;;;-4.37;75.52;97760.89;1901612;75;21283;-81
2020/12/02 08:45:19;;;;;;;23.03;11.00;;;;;;;-4.24;74.50;97759.46;1901488;75;21252;-81
2020/12/02 08:47:55;;;;;;;48.97;24.20;;;;;;;-4.03;74.46;97759.23;1900302;75;21113;-77
2020/12/02 08:50:26;;;;;;;;;;;;;;;-4.25;73.51;97753.05;1904044;75;21247;-81
2020/12/02 08:52:56;;;;;;;16.87;7.90;;;;;;;-4.14;74.62;97755.08;1901357;75;20255;-80
2020/12/02 08:55:26;;;;;;;56.57;27.67;;;;;;;-3.88;75.21;97753.92;1901360;75;21535;-81
2020/12/02 08:57:53;;;;;;;37.50;19.23;;;;;;;-3.94;73.83;97748.83;1867161;75;21240;-83
2020/12/02 09:00:24;;;;;;;55.13;27.83;;;;;;;-3.80;74.97;97749.95;1901616;75;21175;-79
2020/12/02 09:02:54;;;;;;;53.00;27.80;;;;;;;-3.62;72.78;97747.59;1901704;75;21263;-81
2020/12/02 09:05:22;;;;;;;50.77;26.67;;;;;;;-3.40;74.41;97748.15;1889069;75;21289;-83
2020/12/02 09:07:51;;;;;;;41.23;18.80;;;;;;;-3.15;74.53;97743.50;1890462;76;21165;-82
2020/12/02 09:10:18;;;;;;;44.73;22.27;;;;;;;-3.01;73.50;97739.84;1890575;76;21293;-81
2020/12/02 09:12:46;;;;;;;40.43;21.73;;;;;;;-3.07;72.10;97736.94;1818985;79;21626;-82
2020/12/02 09:15:13;;;;;;;18.27;7.23;;;;;;;-3.12;73.10;97737.88;1804948;79;21257;-80
2020/12/02 09:17:40;;;;;;;47.87;25.60;;;;;;;-3.17;73.08;97732.34;1786484;80;21555;-80
2020/12/02 09:20:08;;;;;;;41.40;22.23;;;;;;;-3.21;72.59;97727.25;1803873;79;21290;-84
2020/12/02 09:22:35;;;;;;;44.30;25.20;;;;;;;-3.08;72.63;97725.34;1805868;79;21242;-81
2020/12/02 09:25:04;;;;;;;43.83;23.60;;;;;;;-3.14;71.72;97719.83;1805402;79;21758;-81
2020/12/02 09:27:32;;;;;;;32.40;15.23;;;;;;;-2.93;71.49;97713.92;1805634;79;21249;-81
2020/12/02 09:29:59;;;;;;;50.93;26.60;;;;;;;-2.90;71.32;97708.27;1805395;79;21167;-85
2020/12/02 09:32:26;;;;;;;61.10;24.90;;;;;;;-2.93;71.14;97711.34;1805640;79;21167;-80
2020/12/02 09:34:55;;;;;;;26.60;14.57;;;;;;;-3.21;71.25;97702.34;1805306;79;21145;-84
2020/12/02 09:37:23;;;;;;;27.27;14.93;;;;;;;-3.28;72.71;97707.59;1808778;79;21279;-79
2020/12/02 09:39:56;;;;;;;41.37;23.03;;;;;;;-3.41;72.42;97705.64;1779021;79;21279;-83
2020/12/02 09:42:46;;;;;;;22.53;10.03;;;;;;;-3.62;72.96;97706.35;1808730;79;21693;-78
2020/12/02 09:45:56;;;;;;;25.07;11.17;;;;;;;-3.53;73.51;97703.64;1808562;79;21144;-85
2020/12/02 09:48:26;;;;;;;34.67;16.70;;;;;;;-3.50;73.08;97704.91;1808968;79;21267;-81
2020/12/02 09:50:54;;;;;;;42.90;24.33;;;;;;;-3.46;73.10;97705.26;1805622;79;21691;-82
2020/12/02 09:53:29;;;;;;;44.80;24.47;;;;;;;-3.45;73.32;97686.34;1804813;79;21250;-81
2020/12/02 09:55:57;;;;;;;50.43;27.83;;;;;;;-3.26;73.66;97691.22;1782936;80;21353;-84
2020/12/02 09:58:25;;;;;;;32.73;19.20;;;;;;;-3.18;72.62;97682.09;1778645;79;21137;-83
2020/12/02 10:01:01;;;;;;;25.90;12.07;;;;;;;-2.97;73.18;97683.46;1778203;80;21105;-83
2020/12/02 10:04:03;;;;;;;29.90;15.87;;;;;;;-2.93;72.84;97675.23;1778683;81;21681;-79
2020/12/02 10:06:36;;;;;;;24.20;11.07;;;;;;;-2.94;72.81;97681.27;1734006;79;21147;-81
2020/12/02 10:09:27;;;;;;;41.77;21.50;;;;;;;-2.87;73.03;97670.82;1781698;80;21125;-81
2020/12/02 10:12:21;;;;;;;33.60;14.87;;;;;;;-2.96;73.22;97663.23;1781479;79;21298;-80
2020/12/02 10:15:03;;;;;;;38.17;17.90;;;;;;;-2.87;73.47;97652.76;1781366;81;21298;-82
2020/12/02 10:17:54;;;;;;;34.60;16.93;;;;;;;-2.91;73.56;97651.09;1781075;80;21258;-81
2020/12/02 10:20:42;;;;;;;25.50;12.13;;;;;;;-2.76;73.86;97653.02;1781186;79;21112;-81
2020/12/02 10:23:20;;;;;;;34.07;17.87;;;;;;;-2.67;73.76;97650.27;1851706;77;21120;-82
2020/12/02 10:26:20;;;;;;;36.53;19.60;;;;;;;-2.44;73.70;97642.51;1852323;77;21180;-82
2020/12/02 10:29:00;;;;;;;26.13;11.63;;;;;;;-2.48;73.68;97646.88;1850479;77;21220;-83
2020/12/02 10:32:12;;;;;;;21.50;10.87;;;;;;;-2.24;73.53;97634.39;1850427;77;21248;-83
2020/12/02 10:34:43;;;;;;;35.13;16.40;;;;;;;-2.20;73.24;97633.42;1850109;77;21586;-82
2020/12/02 10:37:23;;;;;;;34.97;19.20;;;;;;;-2.27;72.92;97634.44;1845183;77;21103;-83
2020/12/02 10:39:52;;;;;;;20.87;9.53;;;;;;;-2.38;73.44;97622.59;1844534;77;21122;-81
2020/12/02 10:42:36;;;;;;;25.70;14.33;;;;;;;-2.49;73.09;97621.11;1844842;78;21662;-81
2020/12/02 10:45:14;;;;;;;35.13;18.83;;;;;;;-2.49;73.21;97621.94;1844580;78;21136;-82
2020/12/02 10:48:17;;;;;;;34.80;18.03;;;;;;;-2.48;73.71;97615.91;1842692;78;21127;-80
2020/12/02 10:50:45;;;;;;;27.77;15.20;;;;;;;-2.54;73.48;97614.29;1844327;78;21108;-83
2020/12/02 10:53:17;;;;;;;38.77;19.73;;;;;;;-2.52;73.08;97614.28;1845731;77;21102;-83
2020/12/02 10:55:44;;;;;;;34.30;16.87;;;;;;;-2.65;73.63;97599.89;1827647;77;21117;-85
2020/12/02 10:58:18;;;;;;;36.73;19.20;;;;;;;-2.64;73.68;97602.89;1849932;77;21141;-84
2020/12/02 11:00:52;;;;;;;23.97;12.30;;;;;;;-2.71;73.84;97602.15;1850266;77;21117;-83
2020/12/02 11:03:33;;;;;;;39.50;18.60;;;;;;;-2.62;73.80;97595.52;1849719;77;21121;-82
2020/12/02 11:06:35;;;;;;;33.83;15.37;;;;;;;-2.68;74.12;97590.03;1850405;77;21259;-84
2020/12/02 11:09:26;;;;;;;36.47;18.70;;;;;;;-2.65;73.97;97581.83;1836580;77;21168;-82
2020/12/02 11:12:11;;;;;;;17.70;9.80;;;;;;;-2.61;74.52;97580.45;1850168;77;21610;-80
2020/12/02 11:15:00;;;;;;;32.73;18.23;;;;;;;-2.63;74.02;97589.94;1851251;77;21267;-81
2020/12/02 11:18:08;;;;;;;38.10;21.57;;;;;;;-2.76;74.42;97580.75;1851336;77;21279;-84
2020/12/02 11:21:32;;;;;;;40.97;21.17;;;;;;;-2.73;74.98;97584.13;1851309;77;21641;-83
2020/12/02 11:24:34;;;;;;;36.93;21.80;;;;;;;-2.57;74.91;97574.36;1850606;77;21317;-80
2020/12/02 11:27:03;;;;;;;36.87;20.07;;;;;;;-2.45;74.63;97565.93;1851051;77;21742;-80
2020/12/02 11:29:31;;;;;;;41.20;19.57;;;;;;;-2.41;75.00;97571.45;1850551;77;21142;-85
2020/12/02 11:32:26;;;;;;;42.17;22.17;;;;;;;-2.38;74.40;97577.40;1850867;77;21773;-80
2020/12/02 11:35:11;;;;;;;43.37;22.57;;;;;;;-2.38;74.63;97570.95;1850934;77;21252;-83
2020/12/02 11:37:58;;;;;;;48.73;24.27;;;;;;;-2.22;74.67;97566.73;1850409;77;21752;-79
2020/12/02 11:41:05;;;;;;;28.25;15.05;;;;;;;-2.03;73.84;97565.91;1852990;77;24408;-82
2020/12/02 11:43:42;;;;;;;27.60;14.63;;;;;;;-2.22;74.00;97558.56;1829402;78;21279;-84
2020/12/02 11:46:14;;;;;;;33.93;15.67;;;;;;;-2.33;74.23;97555.81;1829777;78;21298;-81
2020/12/02 11:48:59;;;;;;;37.00;18.57;;;;;;;-2.34;74.35;97558.81;1829365;78;21165;-82
2020/12/02 11:51:46;;;;;;;30.43;15.10;;;;;;;-2.36;74.31;97545.95;1829360;78;21283;-81
2020/12/02 11:54:10;;;;;;;31.23;16.43;;;;;;;-2.38;74.19;97545.58;1831432;78;21124;-81
2020/12/02 11:56:51;;;;;;;33.57;17.33;;;;;;;-2.36;74.40;97544.66;1835505;78;21246;-82
2020/12/02 11:59:29;;;;;;;21.80;10.17;;;;;;;-2.30;74.61;97543.68;1835277;78;21132;-79
2020/12/02 12:02:09;;;;;;;39.93;20.93;;;;;;;-2.25;74.38;97541.00;1835417;77;21126;-81
2020/12/02 12:04:59;;;;;;;37.03;18.93;;;;;;;-2.23;74.62;97546.53;1792292;80;21255;-81